Time;durP1;ratioP1;P1;durP2;ratioP2;P2;SDS_P1;SDS_P2;PMS_P1;PMS_P2;Temp;Humidity;BMP_temperature;BMP_pressure;BME280_temperature;BME280_humidity;BME280_pressure;Samples;Min_cycle;Max_cycle;Signal;HPM_P1;HPM_P2
2023/01/31 00:01:33;;;;;;;14.83;2.27;;;7.40;99.90;;;;;;5050417;28;20692;-58
2023/01/31 00:04:04;;;;;;;15.03;2.43;;;7.40;99.90;;;;;;5032308;28;20655;-58
2023/01/31 00:06:41;;;;;;;23.47;2.60;;;7.70;99.90;;;;;;5050394;28;20176;-59
2023/01/31 00:09:10;;;;;;;18.73;2.43;;;7.50;99.90;;;;;;5050247;28;20260;-58
2023/01/31 00:11:36;;;;;;;20.53;3.20;;;7.60;99.90;;;;;;5050335;28;20177;-58
2023/01/31 00:14:03;;;;;;;16.77;2.43;;;7.70;99.90;;;;;;5050221;28;20169;-58
2023/01/31 00:16:29;;;;;;;24.63;2.77;;;7.80;99.90;;;;;;5050136;28;20168;-58
2023/01/31 00:18:55;;;;;;;13.43;2.17;;;7.60;99.90;;;;;;5050215;28;20208;-58
2023/01/31 00:21:26;;;;;;;32.97;3.87;;;7.60;99.90;;;;;;5053576;28;20530;-58
2023/01/31 00:23:53;;;;;;;12.97;2.33;;;7.60;99.90;;;;;;5054104;28;20180;-58
2023/01/31 00:26:24;;;;;;;22.20;2.77;;;7.60;99.90;;;;;;5051885;28;20173;-58
2023/01/31 00:28:51;;;;;;;13.97;2.37;;;7.60;99.90;;;;;;5053896;28;20173;-59
2023/01/31 00:31:18;;;;;;;11.17;2.00;;;7.50;99.90;;;;;;5035510;28;20166;-58
2023/01/31 00:33:45;;;;;;;14.23;2.23;;;7.60;99.90;;;;;;5053229;28;20251;-58
2023/01/31 00:36:16;;;;;;;21.27;3.47;;;7.70;99.90;;;;;;5053535;28;20287;-58
2023/01/31 00:38:43;;;;;;;19.40;2.83;;;7.50;99.90;;;;;;5053673;28;20255;-57
2023/01/31 00:41:10;;;;;;;15.03;2.70;;;7.40;99.90;;;;;;5053412;28;20676;-57
2023/01/31 00:43:36;;;;;;;14.60;2.03;;;7.30;99.90;;;;;;5053018;28;20230;-58
2023/01/31 00:46:02;;;;;;;25.57;2.90;;;7.30;99.90;;;;;;5053612;28;20262;-57
2023/01/31 00:48:28;;;;;;;28.73;3.53;;;7.30;99.90;;;;;;5053251;28;20654;-57
2023/01/31 00:50:54;;;;;;;21.23;2.80;;;;;;;;;;5046301;28;20646;-57
2023/01/31 00:53:24;;;;;;;20.57;2.60;;;7.30;99.90;;;;;;5052723;28;20173;-57
2023/01/31 00:55:51;;;;;;;9.90;2.10;;;7.30;99.90;;;;;;5053159;28;20498;-57
2023/01/31 00:58:17;;;;;;;15.33;1.87;;;7.30;99.90;;;;;;5053155;28;20215;-57
2023/01/31 01:00:43;;;;;;;19.97;2.47;;;7.30;99.90;;;;;;5053117;28;20179;-57
2023/01/31 01:03:09;;;;;;;25.90;2.70;;;7.30;99.90;;;;;;5052589;28;20530;-57
2023/01/31 01:05:34;;;;;;;16.90;2.67;;;7.30;99.90;;;;;;5053064;28;20181;-57
2023/01/31 01:08:00;;;;;;;20.20;3.00;;;7.20;99.90;;;;;;5052979;28;20169;-57
2023/01/31 01:10:26;;;;;;;20.93;2.40;;;7.20;99.90;;;;;;5053373;28;20184;-57
2023/01/31 01:12:51;;;;;;;12.70;2.33;;;7.20;99.90;;;;;;5053235;28;20192;-57
2023/01/31 01:15:17;;;;;;;14.77;2.00;;;7.30;99.90;;;;;;5053455;28;20169;-57
2023/01/31 01:17:42;;;;;;;13.10;2.00;;;7.30;99.90;;;;;;5053148;28;20184;-58
2023/01/31 01:20:09;;;;;;;17.03;2.40;;;7.20;99.90;;;;;;5053074;28;20291;-57
2023/01/31 01:22:35;;;;;;;19.13;2.40;;;7.20;99.90;;;;;;5053034;28;20169;-58
2023/01/31 01:25:01;;;;;;;29.43;2.83;;;7.20;99.90;;;;;;5052935;28;20177;-57
2023/01/31 01:27:27;;;;;;;23.07;2.80;;;7.20;99.90;;;;;;5053132;28;20184;-59
2023/01/31 01:29:53;;;;;;;18.73;3.27;;;7.30;99.90;;;;;;5052944;28;20655;-58
2023/01/31 01:32:19;;;;;;;22.27;2.67;;;7.30;99.90;;;;;;5051987;28;20181;-58
2023/01/31 01:34:45;;;;;;;17.30;2.07;;;7.30;99.90;;;;;;5052732;28;20221;-57
2023/01/31 01:37:18;;;;;;;21.53;2.60;;;7.40;99.90;;;;;;5052903;28;20271;-58
2023/01/31 01:39:48;;;;;;;25.30;2.87;;;7.40;99.90;;;;;;5052715;28;20219;-58
2023/01/31 01:42:15;;;;;;;22.13;2.90;;;7.50;99.90;;;;;;5052406;28;20177;-58
2023/01/31 01:44:44;;;;;;;16.97;2.07;;;7.50;99.90;;;;;;5052327;28;20189;-57
2023/01/31 01:47:19;;;;;;;17.90;2.70;;;7.50;99.90;;;;;;5044648;28;20216;-58
2023/01/31 01:49:49;;;;;;;14.80;1.90;;;7.60;99.90;;;;;;5052268;28;20185;-58
2023/01/31 01:52:16;;;;;;;15.97;2.37;;;7.60;99.90;;;;;;5052183;28;20188;-58
2023/01/31 01:54:51;;;;;;;16.87;2.20;;;7.40;99.90;;;;;;5052147;28;20177;-57
2023/01/31 01:57:23;;;;;;;19.00;2.03;;;7.60;99.90;;;;;;5052304;28;20172;-58
2023/01/31 01:59:58;;;;;;;13.43;2.00;;;7.50;99.90;;;;;;5035571;28;20211;-57
2023/01/31 02:02:24;;;;;;;14.07;1.50;;;7.50;99.90;;;;;;5052030;28;20173;-57
2023/01/31 02:04:51;;;;;;;20.33;1.97;;;7.50;99.90;;;;;;5051289;28;20211;-57
2023/01/31 02:07:17;;;;;;;21.67;2.23;;;7.50;99.90;;;;;;5047666;28;20173;-57
2023/01/31 02:09:52;;;;;;;14.30;2.10;;;7.50;99.90;;;;;;5051500;28;20647;-57
2023/01/31 02:12:17;;;;;;;16.20;2.50;;;7.60;99.90;;;;;;5051985;28;20171;-57
2023/01/31 02:14:45;;;;;;;15.67;2.63;;;7.30;99.90;;;;;;5052141;28;20177;-57
2023/01/31 02:17:16;;;;;;;19.30;2.50;;;7.60;99.90;;;;;;5052011;28;20173;-57
2023/01/31 02:20:02;;;;;;;18.43;2.80;;;7.50;99.90;;;;;;5051900;28;20225;-57
2023/01/31 02:23:20;;;;;;;23.83;2.80;;;7.50;99.90;;;;;;5052066;28;20173;-55
2023/01/31 02:26:05;;;;;;;15.30;1.60;;;7.40;99.90;;;;;;5051804;28;20165;-58
2023/01/31 02:28:37;;;;;;;19.23;2.07;;;7.40;99.90;;;;;;5051029;28;20187;-58
2023/01/31 02:31:30;;;;;;;22.57;2.50;;;7.40;99.90;;;;;;5050884;28;20248;-58
2023/01/31 02:34:01;;;;;;;18.27;1.93;;;7.40;99.90;;;;;;5049956;28;20266;-58
2023/01/31 02:36:27;;;;;;;17.93;2.20;;;7.40;99.90;;;;;;5051684;28;20282;-59
2023/01/31 02:39:21;;;;;;;15.37;2.03;;;7.40;99.90;;;;;;5051183;28;20296;-62
2023/01/31 02:42:16;;;;;;;18.07;2.00;;;7.50;99.90;;;;;;5042570;28;20232;-58
2023/01/31 02:44:59;;;;;;;23.93;2.40;;;7.40;99.90;;;;;;5017919;28;20189;-58
2023/01/31 02:47:43;;;;;;;18.80;2.20;;;7.50;99.90;;;;;;5050165;28;20196;-58
2023/01/31 02:50:47;;;;;;;23.50;2.67;;;7.60;99.90;;;;;;5039011;28;20256;-58
2023/01/31 02:53:21;;;;;;;21.40;2.10;;;7.70;99.90;;;;;;5039433;28;20187;-58
2023/01/31 02:56:18;;;;;;;21.80;2.37;;;7.60;99.90;;;;;;5050962;28;20186;-58
2023/01/31 02:59:03;;;;;;;18.30;2.83;;;7.40;99.90;;;;;;5050974;28;20684;-58
2023/01/31 03:01:35;;;;;;;15.90;2.07;;;7.60;99.90;;;;;;5050660;28;20176;-58
2023/01/31 03:04:06;;;;;;;13.03;2.47;;;7.60;99.90;;;;;;5050825;28;20214;-58
2023/01/31 03:06:35;;;;;;;20.53;2.10;;;7.60;99.90;;;;;;5050644;28;20266;-58
2023/01/31 03:09:03;;;;;;;16.70;1.83;;;7.70;99.90;;;;;;5050755;28;20173;-58
2023/01/31 03:11:54;;;;;;;14.13;2.13;;;7.50;99.90;;;;;;5050512;28;20173;-59
2023/01/31 03:14:29;;;;;;;24.20;2.50;;;7.60;99.90;;;;;;5036177;28;20271;-59
2023/01/31 03:20:28;;;;;;;12.23;1.70;;;7.70;99.90;;;;;;5050730;28;20255;-59
2023/01/31 03:23:03;;;;;;;16.73;2.17;;;7.70;99.90;;;;;;5050835;28;20179;-59
2023/01/31 03:25:33;;;;;;;18.57;2.17;;;7.80;99.90;;;;;;5032968;28;20184;-59
2023/01/31 03:28:05;;;;;;;22.10;2.47;;;7.80;99.90;;;;;;5050868;28;20169;-59
2023/01/31 03:30:44;;;;;;;20.90;2.50;;;7.80;99.90;;;;;;5050590;28;20180;-58
2023/01/31 03:33:19;;;;;;;19.77;2.53;;;7.90;99.90;;;;;;5050522;28;20177;-58
2023/01/31 03:35:56;;;;;;;18.83;2.13;;;7.90;99.90;;;;;;5044663;28;20234;-58
2023/01/31 03:38:25;;;;;;;15.33;1.93;;;8.00;99.90;;;;;;5050591;28;20295;-58
2023/01/31 03:41:00;;;;;;;23.67;3.10;;;7.90;99.90;;;;;;5050646;28;20201;-58
2023/01/31 03:43:43;;;;;;;19.70;2.43;;;8.00;99.90;;;;;;5050467;28;20230;-59
2023/01/31 03:46:15;;;;;;;13.73;1.80;;;7.90;99.90;;;;;;5050261;28;20181;-59
2023/01/31 03:48:45;;;;;;;24.57;2.77;;;7.90;99.90;;;;;;5050257;28;20177;-58
2023/01/31 03:51:18;;;;;;;19.27;2.83;;;7.90;99.90;;;;;;5050111;28;20260;-58
2023/01/31 03:53:52;;;;;;;22.70;2.10;;;7.90;99.90;;;;;;5049983;28;20177;-58
2023/01/31 03:56:27;;;;;;;20.73;2.43;;;8.10;99.90;;;;;;5053723;28;20193;-58
2023/01/31 03:59:01;;;;;;;14.57;1.83;;;7.90;99.90;;;;;;5054245;28;20212;-58
2023/01/31 04:01:30;;;;;;;19.57;2.20;;;7.90;99.90;;;;;;5054310;28;20178;-58
2023/01/31 04:04:20;;;;;;;17.03;3.03;;;7.90;99.90;;;;;;5036148;28;20610;-58
2023/01/31 04:06:45;;;;;;;17.90;1.70;;;8.00;99.90;;;;;;5054366;28;20192;-58
2023/01/31 04:09:11;;;;;;;13.10;2.17;;;8.00;99.90;;;;;;5054121;28;20260;-59
2023/01/31 04:11:39;;;;;;;15.90;2.30;;;7.90;99.90;;;;;;5054074;28;20181;-57
2023/01/31 04:14:06;;;;;;;16.83;1.70;;;8.00;99.90;;;;;;5040704;28;20179;-57
2023/01/31 04:16:32;;;;;;;14.03;1.63;;;7.90;99.90;;;;;;5054059;28;20180;-58
2023/01/31 04:18:58;;;;;;;13.73;2.17;;;7.90;99.90;;;;;;5053727;28;20259;-58
2023/01/31 04:21:23;;;;;;;11.50;2.10;;;7.90;99.90;;;;;;5054256;28;20655;-58
2023/01/31 04:23:49;;;;;;;18.33;2.40;;;7.90;99.90;;;;;;5053687;28;20177;-57
2023/01/31 04:26:15;;;;;;;15.17;1.77;;;;;;;;;;5054048;28;20165;-57
2023/01/31 04:28:41;;;;;;;18.10;2.00;;;7.80;99.90;;;;;;5053771;28;20592;-58
2023/01/31 04:31:06;;;;;;;15.07;1.93;;;7.90;99.90;;;;;;5046098;28;20200;-58
2023/01/31 04:33:32;;;;;;;28.10;2.47;;;;;;;;;;5053446;28;20177;-58
2023/01/31 04:35:58;;;;;;;16.93;1.90;;;7.80;99.90;;;;;;5053529;28;20181;-58
2023/01/31 04:38:24;;;;;;;16.20;2.43;;;7.80;99.90;;;;;;5053403;28;20226;-58
2023/01/31 04:40:49;;;;;;;12.77;2.73;;;7.70;99.90;;;;;;5053647;28;20184;-57
2023/01/31 04:43:15;;;;;;;11.77;2.23;;;7.70;99.90;;;;;;5053098;28;20185;-58
2023/01/31 04:45:41;;;;;;;22.33;2.60;;;7.60;99.90;;;;;;5053482;28;20193;-58
2023/01/31 04:48:07;;;;;;;12.30;2.03;;;7.60;99.90;;;;;;5053615;28;20361;-58
2023/01/31 04:50:32;;;;;;;13.80;2.00;;;7.70;99.90;;;;;;5053501;28;20238;-58
2023/01/31 04:52:58;;;;;;;15.60;2.17;;;7.60;99.90;;;;;;5053232;28;20170;-58
2023/01/31 04:55:24;;;;;;;9.93;1.40;;;7.60;99.90;;;;;;5051099;28;20254;-58
2023/01/31 04:57:50;;;;;;;13.13;2.00;;;7.60;99.90;;;;;;5052902;28;20182;-58
2023/01/31 05:00:16;;;;;;;18.07;2.40;;;7.70;99.90;;;;;;5053002;28;20192;-58
2023/01/31 05:02:42;;;;;;;10.13;1.60;;;7.70;99.90;;;;;;5048516;28;20208;-57
2023/01/31 05:05:08;;;;;;;11.60;1.97;;;7.80;99.90;;;;;;5035092;28;20327;-58
2023/01/31 05:07:33;;;;;;;15.73;2.43;;;7.80;99.90;;;;;;5048261;28;20176;-58
2023/01/31 05:09:59;;;;;;;14.00;1.70;;;7.40;99.90;;;;;;5052731;28;20173;-58
2023/01/31 05:12:25;;;;;;;14.37;1.77;;;7.80;99.90;;;;;;5051809;28;20180;-57
2023/01/31 05:14:51;;;;;;;12.73;1.83;;;7.80;99.90;;;;;;5050201;28;20192;-58
2023/01/31 05:17:18;;;;;;;18.00;2.40;;;7.90;99.90;;;;;;5053231;28;20644;-58
2023/01/31 05:19:44;;;;;;;16.63;1.97;;;7.80;99.90;;;;;;5052867;28;21070;-58
2023/01/31 05:22:09;;;;;;;15.20;2.53;;;7.80;99.90;;;;;;5053081;28;20233;-58
2023/01/31 05:24:35;;;;;;;14.00;2.93;;;7.80;99.90;;;;;;5053119;28;20270;-58
2023/01/31 05:27:02;;;;;;;9.10;1.70;;;7.70;99.90;;;;;;5051951;28;20244;-56
2023/01/31 05:29:31;;;;;;;13.03;1.77;;;7.90;99.90;;;;;;5046414;28;20193;-58
2023/01/31 05:31:58;;;;;;;15.97;2.10;;;7.80;99.90;;;;;;5052422;28;20177;-58
2023/01/31 05:34:25;;;;;;;14.30;2.20;;;7.90;99.90;;;;;;5025532;28;20582;-59
2023/01/31 05:36:54;;;;;;;21.60;2.97;;;7.90;99.90;;;;;;5032852;28;20178;-58
2023/01/31 05:39:20;;;;;;;22.40;2.30;;;7.90;99.90;;;;;;5050139;28;20316;-59
2023/01/31 05:41:46;;;;;;;18.80;2.90;;;8.00;99.90;;;;;;5052492;28;20275;-59
2023/01/31 05:44:13;;;;;;;18.23;2.87;;;8.00;99.90;;;;;;5052196;28;20169;-59
2023/01/31 05:46:39;;;;;;;19.10;2.90;;;8.00;99.90;;;;;;5052400;28;20211;-58
2023/01/31 05:49:05;;;;;;;19.80;1.90;;;8.10;99.90;;;;;;5052199;28;20193;-58
2023/01/31 05:51:31;;;;;;;17.87;2.23;;;8.20;99.90;;;;;;5051856;28;20260;-59
2023/01/31 05:53:56;;;;;;;15.07;2.37;;;8.30;99.90;;;;;;5052305;28;20252;-59
2023/01/31 05:56:23;;;;;;;23.23;2.83;;;8.30;99.90;;;;;;5052231;28;20619;-58
2023/01/31 05:58:49;;;;;;;24.93;2.33;;;8.40;99.90;;;;;;5051809;28;20278;-59
2023/01/31 06:01:24;;;;;;;17.83;2.60;;;8.50;99.90;;;;;;5051609;28;20187;-58
2023/01/31 06:03:49;;;;;;;20.30;2.67;;;8.60;99.90;;;;;;5052125;28;20181;-58
2023/01/31 06:06:15;;;;;;;23.97;3.03;;;8.70;99.90;;;;;;5051958;28;20635;-59
2023/01/31 06:08:41;;;;;;;25.17;2.63;;;8.90;99.90;;;;;;5033728;28;20185;-59
2023/01/31 06:11:09;;;;;;;27.70;3.20;;;8.90;99.90;;;;;;5051750;28;20257;-56
2023/01/31 06:13:36;;;;;;;36.13;3.53;;;8.90;99.90;;;;;;5051802;28;20173;-57
2023/01/31 06:16:02;;;;;;;23.70;3.33;;;9.00;99.90;;;;;;5051847;28;20177;-57
2023/01/31 06:18:28;;;;;;;24.20;3.67;;;9.10;99.90;;;;;;5051025;28;20556;-57
2023/01/31 06:20:53;;;;;;;24.87;2.93;;;9.10;99.90;;;;;;5051937;28;20184;-57
2023/01/31 06:23:19;;;;;;;27.27;3.13;;;9.10;99.90;;;;;;5043697;28;20569;-58
2023/01/31 06:25:49;;;;;;;25.33;3.97;;;9.10;99.90;;;;;;5051665;28;20267;-57
2023/01/31 06:28:14;;;;;;;30.57;3.50;;;9.10;99.90;;;;;;5051211;28;20260;-57
2023/01/31 06:30:40;;;;;;;27.93;4.00;;;9.10;99.90;;;;;;5051260;28;20234;-57
2023/01/31 06:33:06;;;;;;;30.00;4.27;;;9.10;99.90;;;;;;5051595;28;20488;-57
2023/01/31 06:35:32;;;;;;;29.63;4.83;;;9.10;99.90;;;;;;5051577;28;20223;-58
2023/01/31 06:37:58;;;;;;;31.03;3.47;;;9.10;99.90;;;;;;5051058;28;20177;-57
2023/01/31 06:40:24;;;;;;;37.13;4.73;;;9.10;99.90;;;;;;5051460;28;20177;-57
2023/01/31 06:42:49;;;;;;;25.37;3.27;;;9.30;99.90;;;;;;5051354;28;20177;-57
2023/01/31 06:45:15;;;;;;;22.97;3.03;;;9.20;99.90;;;;;;5051045;28;20234;-57
2023/01/31 06:47:40;;;;;;;22.00;3.53;;;9.00;99.90;;;;;;5050745;28;20639;-57
2023/01/31 06:50:06;;;;;;;29.60;4.80;;;9.20;99.90;;;;;;5051136;28;20181;-58
2023/01/31 06:52:32;;;;;;;24.10;3.17;;;9.30;99.90;;;;;;5051112;28;20172;-57
2023/01/31 06:54:57;;;;;;;19.93;3.10;;;9.20;99.90;;;;;;5050972;28;20687;-57
2023/01/31 06:57:23;;;;;;;22.10;2.97;;;9.20;99.90;;;;;;5050732;28;20639;-57
2023/01/31 06:59:49;;;;;;;29.57;4.10;;;9.30;99.90;;;;;;5050614;28;20220;-57
2023/01/31 07:02:15;;;;;;;24.37;3.27;;;9.20;99.90;;;;;;5050729;28;20273;-61
2023/01/31 07:04:41;;;;;;;36.87;4.37;;;9.30;99.90;;;;;;5050926;28;20177;-58
2023/01/31 07:07:06;;;;;;;26.07;3.40;;;9.20;99.90;;;;;;5050793;28;20165;-58
2023/01/31 07:09:32;;;;;;;27.17;3.87;;;9.30;99.90;;;;;;5051041;28;20165;-58
2023/01/31 07:11:57;;;;;;;36.90;4.07;;;9.30;99.90;;;;;;5050631;28;20180;-58
2023/01/31 07:14:23;;;;;;;25.83;3.53;;;9.50;99.90;;;;;;5050612;28;20189;-58
2023/01/31 07:16:49;;;;;;;24.50;3.17;;;9.20;99.90;;;;;;5050916;28;20177;-58
2023/01/31 07:19:14;;;;;;;29.70;4.27;;;9.20;99.90;;;;;;5042993;28;20221;-58
2023/01/31 07:21:41;;;;;;;23.83;3.70;;;9.20;99.90;;;;;;5050698;28;20485;-58
2023/01/31 07:24:07;;;;;;;18.37;2.37;;;9.30;99.90;;;;;;5048952;28;20185;-58
2023/01/31 07:26:33;;;;;;;29.60;4.37;;;9.30;99.90;;;;;;5050558;28;20227;-58
2023/01/31 07:28:59;;;;;;;19.90;3.27;;;9.20;99.90;;;;;;5050304;28;20165;-58
2023/01/31 07:31:25;;;;;;;24.30;2.97;;;9.30;99.90;;;;;;5037587;28;20185;-58
2023/01/31 07:33:50;;;;;;;25.20;2.97;;;9.30;99.90;;;;;;5030497;28;20284;-58
2023/01/31 07:36:20;;;;;;;17.10;2.53;;;9.20;99.90;;;;;;5030782;28;20327;-58
2023/01/31 07:38:45;;;;;;;28.80;2.63;;;9.30;99.90;;;;;;5030231;28;20225;-58
2023/01/31 07:41:11;;;;;;;16.67;2.40;;;9.30;99.90;;;;;;5030310;28;20219;-58
2023/01/31 07:43:37;;;;;;;20.00;2.50;;;9.30;99.90;;;;;;5030469;28;20177;-58
2023/01/31 07:46:08;;;;;;;19.83;2.30;;;9.30;99.90;;;;;;5037190;28;20632;-63
2023/01/31 07:48:33;;;;;;;19.73;2.53;;;9.40;99.90;;;;;;5049676;28;20177;-59
2023/01/31 07:51:01;;;;;;;19.10;2.80;;;9.30;99.90;;;;;;5050261;28;20252;-60
2023/01/31 07:53:29;;;;;;;16.97;2.03;;;9.30;99.90;;;;;;5048879;28;20185;-58
2023/01/31 07:55:54;;;;;;;10.63;1.80;;;9.40;99.90;;;;;;5049566;28;20652;-58
2023/01/31 07:58:20;;;;;;;16.93;2.23;;;9.40;99.90;;;;;;5049793;28;20213;-58
2023/01/31 08:03:34;;;;;;;15.00;1.90;;;9.40;99.90;;;;;;5049640;28;20261;-59
2023/01/31 08:06:07;;;;;;;15.13;2.83;;;9.50;99.90;;;;;;5049777;28;20189;-60
2023/01/31 08:08:34;;;;;;;23.23;2.73;;;9.50;99.90;;;;;;5042594;28;20227;-59
2023/01/31 08:11:00;;;;;;;17.53;2.33;;;10.50;99.90;;;;;;5049970;28;20181;-59
2023/01/31 08:13:25;;;;;;;17.27;2.33;;;9.70;99.90;;;;;;5044303;28;20161;-59
2023/01/31 08:15:52;;;;;;;16.87;2.73;;;9.40;99.90;;;;;;5048359;28;20169;-59
2023/01/31 08:18:18;;;;;;;14.23;2.53;;;9.40;99.90;;;;;;5049956;28;20223;-58
2023/01/31 08:20:44;;;;;;;12.67;2.17;;;9.40;99.90;;;;;;5030973;28;20205;-59
2023/01/31 08:23:10;;;;;;;9.97;1.77;;;9.40;99.90;;;;;;5050027;28;20191;-59
2023/01/31 08:25:36;;;;;;;9.60;1.70;;;9.60;99.90;;;;;;5050068;28;20650;-59
2023/01/31 08:28:02;;;;;;;13.50;2.10;;;9.40;99.90;;;;;;5050184;28;20184;-59
2023/01/31 08:30:28;;;;;;;17.70;2.57;;;9.40;99.90;;;;;;5049107;28;20180;-58
2023/01/31 08:32:54;;;;;;;15.30;2.63;;;9.50;99.90;;;;;;5050012;28;20174;-56
2023/01/31 08:35:20;;;;;;;12.13;3.00;;;10.00;99.90;;;;;;5049881;28;20221;-58
2023/01/31 08:37:45;;;;;;;15.13;2.87;;;9.40;99.90;;;;;;5049845;28;20177;-59
2023/01/31 08:40:11;;;;;;;13.53;3.43;;;9.50;99.90;;;;;;5049740;28;20185;-57
2023/01/31 08:42:38;;;;;;;13.17;3.30;;;10.40;99.90;;;;;;5053467;28;20173;-58
2023/01/31 08:45:05;;;;;;;31.13;7.10;;;9.60;99.90;;;;;;5053362;28;20169;-57
2023/01/31 08:47:32;;;;;;;12.03;3.37;;;9.60;99.90;;;;;;5053840;28;20174;-57
2023/01/31 08:49:57;;;;;;;18.10;3.60;;;9.60;99.90;;;;;;5052686;28;20177;-57
2023/01/31 08:52:23;;;;;;;14.83;3.30;;;9.60;99.90;;;;;;5052915;28;20177;-57
2023/01/31 08:54:49;;;;;;;15.97;3.10;;;9.60;99.90;;;;;;5053369;28;20173;-58
2023/01/31 08:57:14;;;;;;;19.33;3.00;;;9.60;99.90;;;;;;5052661;28;20229;-58
2023/01/31 08:59:40;;;;;;;13.03;2.87;;;9.60;99.90;;;;;;5053319;28;20213;-61
2023/01/31 09:02:06;;;;;;;14.43;2.60;;;9.20;99.90;;;;;;5052962;28;20223;-56
2023/01/31 09:04:32;;;;;;;15.23;2.90;;;9.70;99.90;;;;;;5053267;28;20222;-57
2023/01/31 09:06:57;;;;;;;21.63;2.90;;;9.80;99.90;;;;;;5053112;28;20165;-57
2023/01/31 09:09:24;;;;;;;11.90;2.77;;;9.70;99.90;;;;;;5051640;28;20188;-57
2023/01/31 09:11:51;;;;;;;16.43;2.93;;;;;;;;;;5049052;28;20213;-57
2023/01/31 09:14:16;;;;;;;14.60;3.03;;;9.70;99.90;;;;;;5052338;28;20250;-56
2023/01/31 09:16:44;;;;;;;11.20;3.13;;;9.70;99.90;;;;;;5051529;28;20212;-56
2023/01/31 09:19:10;;;;;;;15.63;2.60;;;9.70;99.90;;;;;;5051977;28;20679;-56
2023/01/31 09:21:35;;;;;;;13.20;2.93;;;9.70;99.90;;;;;;5051245;28;20184;-56
2023/01/31 09:24:02;;;;;;;10.63;1.87;;;9.70;99.90;;;;;;5052850;28;20256;-56
2023/01/31 09:26:28;;;;;;;14.73;2.53;;;9.70;99.90;;;;;;5052146;28;20655;-57
2023/01/31 09:28:54;;;;;;;14.67;2.47;;;9.70;99.90;;;;;;5050462;28;20185;-56
2023/01/31 09:31:21;;;;;;;16.93;2.67;;;9.70;99.90;;;;;;5052223;28;20181;-54
2023/01/31 09:33:47;;;;;;;15.80;3.10;;;9.70;99.90;;;;;;5051255;28;20303;-57
2023/01/31 09:36:15;;;;;;;10.87;2.70;;;9.80;99.90;;;;;;5052836;28;20260;-57
2023/01/31 09:38:41;;;;;;;19.10;3.00;;;9.90;99.90;;;;;;5052528;28;20203;-57
2023/01/31 09:41:40;;;;;;;14.93;2.40;;;9.90;99.90;;;;;;5052472;28;20177;-57
2023/01/31 09:44:19;;;;;;;17.67;3.17;;;10.10;99.90;;;;;;5052799;28;20183;-57
2023/01/31 09:46:53;;;;;;;13.80;2.70;;;10.00;99.90;;;;;;5051272;28;20585;-55
2023/01/31 09:49:26;;;;;;;19.00;2.73;;;10.00;99.90;;;;;;5051485;28;20371;-55
2023/01/31 09:51:57;;;;;;;18.77;2.63;;;10.30;99.90;;;;;;5029533;28;20584;-57
2023/01/31 09:54:30;;;;;;;13.77;2.50;;;10.60;99.90;;;;;;5049606;28;20235;-55
2023/01/31 09:57:10;;;;;;;17.53;3.23;;;11.00;99.90;;;;;;5050417;28;20179;-55
2023/01/31 10:00:13;;;;;;;17.93;2.90;;;11.10;99.90;;;;;;5050025;28;20506;-55
2023/01/31 10:02:58;;;;;;;16.90;2.70;;;11.30;99.90;;;;;;5048698;28;20181;-59
2023/01/31 10:05:44;;;;;;;16.60;2.53;;;11.40;99.90;;;;;;5050453;28;20628;-59
2023/01/31 10:08:40;;;;;;;11.97;2.07;;;11.40;99.90;;;;;;5050908;28;20200;-60
2023/01/31 10:11:12;;;;;;;15.50;2.50;;;11.40;99.90;;;;;;5041297;28;20181;-58
2023/01/31 10:13:46;;;;;;;13.27;2.60;;;11.40;99.90;;;;;;5051774;28;20235;-59
2023/01/31 10:16:29;;;;;;;12.70;2.10;;;11.20;99.90;;;;;;5052375;28;20181;-58
2023/01/31 10:19:05;;;;;;;11.73;2.10;;;11.20;99.90;;;;;;5051478;28;20593;-58
2023/01/31 10:21:39;;;;;;;17.03;3.73;;;11.50;99.90;;;;;;5051788;28;20534;-59
2023/01/31 10:24:28;;;;;;;12.33;2.57;;;11.50;99.90;;;;;;5051781;28;20667;-58
2023/01/31 10:27:02;;;;;;;15.37;2.93;;;11.90;99.90;;;;;;5031902;28;20173;-59
2023/01/31 10:29:43;;;;;;;14.20;2.90;;;11.90;99.90;;;;;;5014876;28;20173;-59
2023/01/31 10:32:27;;;;;;;10.30;3.07;;;12.00;99.90;;;;;;5032139;28;20194;-59
2023/01/31 10:34:59;;;;;;;19.27;3.70;;;11.90;99.90;;;;;;5031637;28;20245;-59
2023/01/31 10:37:31;;;;;;;18.03;3.73;;;12.20;99.90;;;;;;5031785;28;20162;-60
2023/01/31 10:40:14;;;;;;;13.47;3.77;;;12.30;99.90;;;;;;5031702;28;20213;-59
2023/01/31 10:42:44;;;;;;;14.77;3.50;;;12.50;99.90;;;;;;5038984;28;20177;-59
2023/01/31 10:45:29;;;;;;;18.40;3.87;;;12.80;99.90;;;;;;5050458;28;20212;-59
2023/01/31 10:48:07;;;;;;;14.77;3.10;;;12.50;99.90;;;;;;5051317;28;20173;-58
2023/01/31 10:50:44;;;;;;;16.43;3.43;;;12.60;99.90;;;;;;5047868;28;20184;-57
2023/01/31 10:53:12;;;;;;;15.00;3.67;;;12.70;99.90;;;;;;5048669;28;20273;-57
2023/01/31 10:56:05;;;;;;;14.60;3.27;;;12.80;99.90;;;;;;5051342;28;20307;-57
2023/01/31 10:58:32;;;;;;;19.00;3.60;;;12.90;99.90;;;;;;5049856;28;20236;-57
2023/01/31 11:00:58;;;;;;;18.87;3.73;;;13.00;99.90;;;;;;5048075;28;20213;-57
2023/01/31 11:03:24;;;;;;;16.37;3.70;;;13.10;99.90;;;;;;5050384;28;20177;-56
2023/01/31 11:05:55;;;;;;;11.27;3.60;;;13.10;99.90;;;;;;5048979;28;20177;-56
2023/01/31 11:08:43;;;;;;;11.87;3.57;;;13.00;99.90;;;;;;5050733;28;20189;-56
2023/01/31 11:11:11;;;;;;;12.23;4.03;;;13.20;99.90;;;;;;5051513;28;20172;-56
2023/01/31 11:13:37;;;;;;;14.43;3.80;;;13.40;99.90;;;;;;5050584;28;20212;-56
2023/01/31 11:16:10;;;;;;;12.53;3.80;;;13.50;99.90;;;;;;5050674;28;20185;-57
2023/01/31 11:18:49;;;;;;;16.93;3.87;;;13.40;99.90;;;;;;5050683;28;20227;-57
2023/01/31 11:21:34;;;;;;;11.07;3.50;;;13.00;99.90;;;;;;5050961;28;20272;-57
2023/01/31 11:24:06;;;;;;;13.60;3.67;;;12.90;99.90;;;;;;5050366;28;20251;-57
2023/01/31 11:26:39;;;;;;;7.87;3.10;;;14.50;99.90;;;;;;5050558;28;20256;-57
2023/01/31 11:29:15;;;;;;;13.53;3.57;;;14.70;99.90;;;;;;5050974;28;20184;-57
2023/01/31 11:31:44;;;;;;;12.43;3.67;;;15.30;99.90;;;;;;5050620;28;20165;-57
2023/01/31 11:34:30;;;;;;;19.57;3.10;;;15.50;99.90;;;;;;5045369;28;20671;-57
2023/01/31 11:37:16;;;;;;;10.55;2.78;;;16.10;99.90;;;;;;5050276;28;20189;-57
2023/01/31 11:39:55;;;;;;;8.45;2.60;;;18.10;99.90;;;;;;5048981;28;20205;-57
2023/01/31 11:42:20;;;;;;;13.90;3.03;;;17.60;99.90;;;;;;5048657;28;20169;-57
2023/01/31 11:45:14;;;;;;;12.82;2.80;;;17.60;99.90;;;;;;5047609;28;20256;-58
2023/01/31 11:47:56;;;;;;;7.43;2.33;;;18.90;99.90;;;;;;5044033;28;20239;-57
2023/01/31 11:50:38;;;;;;;10.30;2.15;;;19.70;99.90;;;;;;5047699;28;20199;-58
2023/01/31 11:53:16;;;;;;;10.23;2.20;;;18.50;99.90;;;;;;5047153;28;20204;-58
2023/01/31 11:55:43;;;;;;;11.80;2.75;;;18.60;99.90;;;;;;5050444;28;20184;-58
2023/01/31 11:58:21;;;;;;;12.15;2.40;;;18.40;99.90;;;;;;5050520;28;20169;-57
2023/01/31 12:01:05;;;;;;;11.25;2.10;;;20.30;99.90;;;;;;5048976;28;20248;-58
2023/01/31 12:03:32;;;;;;;10.45;2.28;;;22.20;99.90;;;;;;5050497;28;20173;-58
2023/01/31 12:06:09;;;;;;;14.10;2.85;;;23.70;99.90;;;;;;5050365;28;20240;-58
2023/01/31 12:08:39;;;;;;;20.20;2.22;;;23.90;99.90;;;;;;5047683;28;20165;-58
2023/01/31 12:11:20;;;;;;;18.23;2.83;;;24.10;99.90;;;;;;5046990;28;20275;-58
2023/01/31 12:13:50;;;;;;;14.43;2.58;;;23.70;99.90;;;;;;5049977;28;20185;-58
2023/01/31 12:16:20;;;;;;;13.73;2.53;;;22.00;99.90;;;;;;5034592;28;20253;-58
2023/01/31 12:18:48;;;;;;;8.70;2.60;;;20.90;99.90;;;;;;5034293;28;20205;-58
2023/01/31 12:21:26;;;;;;;16.63;3.17;;;21.40;99.90;;;;;;5049853;28;20215;-58
2023/01/31 12:24:13;;;;;;;15.77;3.03;;;22.60;99.90;;;;;;5054215;28;20184;-58
2023/01/31 12:27:08;;;;;;;14.82;3.03;;;23.00;99.90;;;;;;5036322;28;20176;-58
2023/01/31 12:30:04;;;;;;;15.45;2.92;;;22.40;99.90;;;;;;5016292;28;20188;-58
2023/01/31 12:32:33;;;;;;;17.75;3.20;;;22.60;99.90;;;;;;5034227;28;20180;-59
2023/01/31 12:35:34;;;;;;;20.27;3.58;;;20.80;99.90;;;;;;5033930;28;20281;-59
2023/01/31 12:38:23;;;;;;;19.55;3.90;;;22.10;99.90;;;;;;4981222;28;20209;-58
2023/01/31 12:40:54;;;;;;;12.48;2.58;;;22.80;99.90;;;;;;5042660;28;20200;-59
2023/01/31 12:43:38;;;;;;;15.60;3.67;;;22.90;99.90;;;;;;5053813;28;20189;-59
2023/01/31 12:46:37;;;;;;;14.20;3.10;;;21.50;99.90;;;;;;5052639;28;20256;-58
2023/01/31 12:49:27;;;;;;;14.18;3.42;;;21.40;99.90;;;;;;5053519;28;20172;-59
2023/01/31 12:52:10;;;;;;;17.77;3.22;;;19.50;99.90;;;;;;5053198;28;21514;-58
2023/01/31 12:54:50;;;;;;;20.80;3.15;;;19.90;99.90;;;;;;5053634;28;20656;-59
2023/01/31 12:57:37;;;;;;;21.20;3.63;;;19.50;99.90;;;;;;5053674;28;20200;-59
2023/01/31 13:00:17;;;;;;;20.92;3.67;;;20.60;99.90;;;;;;5033401;28;20202;-59
2023/01/31 13:03:29;;;;;;;17.30;3.40;;;21.10;99.90;;;;;;5036009;28;20207;-59
2023/01/31 13:06:13;;;;;;;15.50;3.17;;;21.50;99.90;;;;;;5044539;28;20268;-59
2023/01/31 13:08:42;;;;;;;17.67;3.38;;;20.80;99.90;;;;;;5047471;28;20196;-59
2023/01/31 13:11:32;;;;;;;18.40;3.33;;;20.00;99.90;;;;;;5045013;28;20675;-59
2023/01/31 13:14:04;;;;;;;17.50;4.28;;;20.70;99.90;;;;;;5033656;28;20180;-59